Time;durP1;ratioP1;P1;durP2;ratioP2;P2;SDS_P1;SDS_P2;PMS_P1;PMS_P2;Temp;Humidity;BMP_temperature;BMP_pressure;BME280_temperature;BME280_humidity;BME280_pressure;Samples;Min_cycle;Max_cycle;Signal;HPM_P1;HPM_P2
2020/12/29 00:01:49;;;;;;;26.30;14.47;;;;;;;2.39;77.97;100199.88;1750221;81;21356;-52
2020/12/29 00:04:22;;;;;;;24.90;13.90;;;;;;;2.40;77.90;100197.50;1750413;82;21008;-51
2020/12/29 00:06:53;;;;;;;22.98;13.70;;;;;;;2.39;77.82;100201.75;1750283;82;21060;-52
2020/12/29 00:09:24;;;;;;;22.17;14.07;;;;;;;2.40;77.73;100198.84;1750286;82;21067;-56
2020/12/29 00:11:53;;;;;;;21.60;13.58;;;;;;;2.40;77.71;100183.25;1750378;82;21487;-54
2020/12/29 00:14:20;;;;;;;24.95;14.50;;;;;;;2.40;77.69;100171.98;1750303;81;21583;-51
2020/12/29 00:16:48;;;;;;;29.60;16.95;;;;;;;2.41;77.64;100179.52;1750231;80;21139;-53
2020/12/29 00:19:20;;;;;;;26.68;15.40;;;;;;;2.36;77.75;100192.25;1750256;81;21004;-51
2020/12/29 00:21:47;;;;;;;30.77;17.37;;;;;;;2.37;77.87;100206.49;1750257;82;21559;-52
2020/12/29 00:24:15;;;;;;;30.48;17.20;;;;;;;2.35;77.90;100195.98;1750266;82;21187;-53
2020/12/29 00:26:45;;;;;;;34.25;19.35;;;;;;;2.34;77.98;100188.97;1746769;82;21363;-54
2020/12/29 00:29:13;;;;;;;30.88;17.98;;;;;;;2.32;78.02;100158.28;1750346;82;21495;-51
2020/12/29 00:31:41;;;;;;;31.55;18.17;;;;;;;2.32;78.04;100144.86;1750274;82;21062;-53
2020/12/29 00:34:08;;;;;;;29.77;16.95;;;;;;;2.30;78.10;100169.77;1750250;81;21150;-49
2020/12/29 00:36:36;;;;;;;28.23;16.37;;;;;;;2.31;78.15;100184.02;1750269;82;21035;-51
2020/12/29 00:39:04;;;;;;;28.92;18.30;;;;;;;2.32;78.28;100170.36;1750228;81;21385;-49
2020/12/29 00:41:33;;;;;;;27.22;16.50;;;;;;;2.37;78.33;100162.19;1750205;82;20952;-52
2020/12/29 00:44:00;;;;;;;29.70;17.73;;;;;;;2.40;78.35;100174.67;1752249;80;21071;-53
2020/12/29 00:46:28;;;;;;;29.18;16.55;;;;;;;2.44;78.32;100169.70;1753241;81;21150;-52
2020/12/29 00:48:58;;;;;;;24.60;14.25;;;;;;;2.46;78.21;100172.46;1753236;81;21582;-51
2020/12/29 00:51:25;;;;;;;23.18;13.75;;;;;;;2.47;78.24;100174.62;1753159;80;23442;-53
2020/12/29 00:53:54;;;;;;;23.40;13.90;;;;;;;2.49;78.19;100168.53;1752921;81;21056;-49
2020/12/29 00:56:22;;;;;;;21.50;13.48;;;;;;;2.49;78.05;100168.02;1753158;81;21055;-50
2020/12/29 00:58:52;;;;;;;23.20;12.93;;;;;;;2.48;78.11;100173.05;1753200;80;21482;-51
2020/12/29 01:01:20;;;;;;;26.07;15.58;;;;;;;2.47;78.04;100156.64;1753203;81;20933;-52
2020/12/29 01:04:04;;;;;;;23.33;13.77;;;;;;;2.51;77.98;100140.93;1873645;75;22729;-53
2020/12/29 01:06:32;;;;;;;17.35;12.37;;;;;;;2.50;77.80;100135.27;1841646;77;21454;-53
2020/12/29 01:09:01;;;;;;;19.00;11.78;;;;;;;2.49;77.73;100131.76;1841717;77;21462;-51
2020/12/29 01:11:32;;;;;;;17.17;11.93;;;;;;;2.51;77.78;100145.78;1841407;78;20935;-51
2020/12/29 01:14:01;;;;;;;20.55;12.75;;;;;;;2.55;77.69;100152.89;1841678;77;21394;-52
2020/12/29 01:16:30;;;;;;;19.35;12.78;;;;;;;2.58;77.62;100134.45;1811455;78;20998;-50
2020/12/29 01:18:59;;;;;;;22.82;13.10;;;;;;;2.64;77.52;100154.80;1841608;78;20959;-52
2020/12/29 01:21:27;;;;;;;23.92;14.73;;;;;;;2.64;77.34;100144.06;1841569;77;22535;-53
2020/12/29 01:23:55;;;;;;;22.65;14.20;;;;;;;2.63;77.24;100150.45;1841503;77;20931;-51
2020/12/29 01:26:24;;;;;;;21.57;13.30;;;;;;;2.67;77.21;100155.16;1841573;78;21461;-53
2020/12/29 01:28:53;;;;;;;18.92;12.60;;;;;;;2.72;77.17;100164.73;1841516;77;20946;-53
2020/12/29 01:31:28;;;;;;;17.30;11.53;;;;;;;2.77;77.08;100154.69;1841553;77;21054;-50
2020/12/29 01:33:56;;;;;;;18.80;12.10;;;;;;;2.81;77.03;100154.55;1841890;77;21138;-51
2020/12/29 01:36:25;;;;;;;16.00;11.20;;;;;;;2.80;76.84;100151.05;1841477;78;20950;-52
2020/12/29 01:38:53;;;;;;;17.65;10.88;;;;;;;2.82;76.79;100150.30;1841552;77;20934;-49
2020/12/29 01:41:21;;;;;;;17.62;11.30;;;;;;;2.82;76.72;100142.23;1841498;78;20995;-53
2020/12/29 01:43:50;;;;;;;18.05;11.78;;;;;;;2.82;76.72;100121.27;1841497;78;20991;-52
2020/12/29 01:46:18;;;;;;;21.50;13.25;;;;;;;2.81;76.75;100120.45;1841546;77;21381;-50
2020/12/29 01:48:45;;;;;;;19.82;12.73;;;;;;;2.83;76.71;100118.87;1841499;78;21486;-48
2020/12/29 01:51:13;;;;;;;17.55;11.93;;;;;;;2.82;76.69;100107.30;1836841;78;21210;-48
2020/12/29 01:53:41;;;;;;;15.90;11.15;;;;;;;2.83;76.63;100122.37;1808476;78;20968;-52
2020/12/29 01:56:10;;;;;;;15.93;11.33;;;;;;;2.85;76.61;100123.00;1808462;78;21557;-50
2020/12/29 01:58:40;;;;;;;18.48;11.97;;;;;;;2.90;76.55;100105.40;1808176;78;22198;-54
2020/12/29 02:01:08;;;;;;;19.07;12.40;;;;;;;2.89;76.49;100119.85;1808518;78;21145;-52
2020/12/29 02:03:36;;;;;;;21.73;13.28;;;;;;;2.90;76.48;100112.12;1802957;79;21182;-54
2020/12/29 02:06:04;;;;;;;21.90;13.28;;;;;;;2.91;76.43;100123.16;1800487;78;21021;-53
2020/12/29 02:08:32;;;;;;;21.40;13.13;;;;;;;2.90;76.42;100106.22;1800584;79;20922;-53
2020/12/29 02:11:00;;;;;;;22.52;14.58;;;;;;;2.91;76.35;100090.91;1800597;79;21194;-53
2020/12/29 02:13:28;;;;;;;19.80;12.28;;;;;;;2.89;76.27;100091.14;1800394;78;21018;-52
2020/12/29 02:15:57;;;;;;;12.65;8.33;;;;;;;2.88;76.28;100096.72;1799987;78;21144;-54
2020/12/29 02:18:24;;;;;;;11.38;8.30;;;;;;;2.87;76.33;100094.55;1799949;79;21502;-52
2020/12/29 02:20:52;;;;;;;12.25;8.65;;;;;;;2.87;76.43;100094.55;1799978;78;20931;-53
2020/12/29 02:23:19;;;;;;;11.35;8.28;;;;;;;2.91;76.35;100111.89;1800089;78;21340;-52
2020/12/29 02:25:47;;;;;;;12.93;8.48;;;;;;;2.94;76.22;100106.09;1799926;79;21101;-51
2020/12/29 02:28:15;;;;;;;10.95;7.65;;;;;;;2.94;76.01;100108.77;1799768;79;21485;-54
2020/12/29 02:30:43;;;;;;;10.43;7.92;;;;;;;2.94;75.95;100104.73;1799871;78;20922;-54
2020/12/29 02:33:11;;;;;;;10.63;7.58;;;;;;;2.91;75.85;100107.86;1800059;78;21057;-55
2020/12/29 02:35:39;;;;;;;11.70;8.58;;;;;;;2.90;75.91;100118.31;1799917;78;20959;-55
2020/12/29 02:38:06;;;;;;;9.28;7.80;;;;;;;2.91;75.79;100109.73;1799948;78;21631;-55
2020/12/29 02:40:34;;;;;;;12.35;8.30;;;;;;;2.90;75.82;100111.59;1799978;78;20922;-53
2020/12/29 02:43:02;;;;;;;9.95;7.15;;;;;;;2.92;75.86;100110.02;1799938;78;20934;-51
2020/12/29 02:45:31;;;;;;;8.78;6.15;;;;;;;2.92;75.85;100100.09;1800011;78;20986;-54
2020/12/29 02:48:00;;;;;;;9.23;6.85;;;;;;;2.91;75.79;100097.11;1799991;78;21141;-52
2020/12/29 02:50:31;;;;;;;11.28;7.25;;;;;;;2.90;75.90;100104.87;1799857;78;20998;-54
2020/12/29 02:52:59;;;;;;;11.70;8.25;;;;;;;2.92;75.91;100085.84;1799986;78;21025;-55
2020/12/29 02:55:26;;;;;;;11.00;7.12;;;;;;;2.91;75.88;100096.29;1799930;79;21469;-52
2020/12/29 02:57:54;;;;;;;10.78;7.72;;;;;;;2.85;75.95;100079.19;1799949;78;20977;-52
2020/12/29 03:00:22;;;;;;;10.48;8.75;;;;;;;2.81;76.04;100074.77;1800012;78;21535;-55
2020/12/29 03:02:50;;;;;;;9.60;7.28;;;;;;;2.81;76.06;100072.08;1799635;79;21022;-54
2020/12/29 03:05:18;;;;;;;11.75;9.13;;;;;;;2.78;75.91;100070.34;1799921;78;20965;-53
2020/12/29 03:07:46;;;;;;;14.63;11.97;;;;;;;2.72;76.04;100072.58;1799906;79;20927;-55
2020/12/29 03:10:13;;;;;;;12.78;10.23;;;;;;;2.70;76.08;100080.05;1799959;78;20950;-53
2020/12/29 03:12:41;;;;;;;14.58;11.03;;;;;;;2.71;76.11;100088.41;1799922;79;23537;-54
2020/12/29 03:15:09;;;;;;;12.18;9.00;;;;;;;2.69;76.05;100075.72;1799890;78;20994;-52
2020/12/29 03:17:37;;;;;;;11.63;9.20;;;;;;;2.67;76.08;100075.92;1799918;78;21104;-54
2020/12/29 03:20:06;;;;;;;13.05;10.28;;;;;;;2.69;76.08;100087.29;1799910;79;20942;-53
2020/12/29 03:22:35;;;;;;;13.08;9.90;;;;;;;2.72;76.10;100091.38;1799932;78;20950;-52
2020/12/29 03:25:02;;;;;;;13.85;11.65;;;;;;;2.75;75.99;100094.46;1799962;78;21510;-54
2020/12/29 03:27:30;;;;;;;16.27;12.35;;;;;;;2.75;75.92;100093.64;1799858;78;21005;-56
2020/12/29 03:29:58;;;;;;;15.35;11.05;;;;;;;2.74;75.90;100088.80;1799870;78;21102;-52
2020/12/29 03:32:26;;;;;;;13.58;9.85;;;;;;;2.75;75.84;100077.52;1784615;79;20988;-56
2020/12/29 03:34:54;;;;;;;12.63;10.82;;;;;;;2.73;75.82;100070.19;1799940;78;20950;-54
2020/12/29 03:37:22;;;;;;;13.62;10.75;;;;;;;2.72;75.90;100065.34;1800018;79;21477;-53
2020/12/29 03:39:50;;;;;;;15.85;12.37;;;;;;;2.73;75.91;100079.59;1799859;78;21116;-53
2020/12/29 03:42:18;;;;;;;13.93;11.20;;;;;;;2.71;75.85;100059.67;1799794;79;21108;-54
2020/12/29 03:44:48;;;;;;;12.43;9.78;;;;;;;2.66;75.81;100055.48;1799813;79;20986;-51
2020/12/29 03:47:16;;;;;;;11.38;8.95;;;;;;;2.61;75.97;100045.92;1799913;79;21044;-50
2020/12/29 03:49:45;;;;;;;14.05;10.65;;;;;;;2.58;76.03;100052.54;1799895;78;21431;-53
2020/12/29 03:52:13;;;;;;;15.63;11.55;;;;;;;2.53;76.17;100069.83;1799815;78;20899;-54
2020/12/29 03:54:41;;;;;;;14.95;11.57;;;;;;;2.48;76.42;100071.01;1799983;79;21549;-54
2020/12/29 03:57:08;;;;;;;14.93;10.88;;;;;;;2.50;76.53;100085.06;1799848;79;21560;-50
2020/12/29 03:59:36;;;;;;;14.00;10.43;;;;;;;2.55;76.54;100088.44;1799899;79;20942;-54
2020/12/29 04:02:04;;;;;;;14.55;10.75;;;;;;;2.61;76.34;100092.92;1799663;78;21196;-51
2020/12/29 04:04:32;;;;;;;14.40;10.15;;;;;;;2.63;76.27;100079.27;1764413;80;21016;-52
2020/12/29 04:06:59;;;;;;;12.90;9.48;;;;;;;2.60;76.27;100077.86;1762636;80;21030;-52
2020/12/29 04:09:31;;;;;;;17.45;12.53;;;;;;;2.62;76.24;100078.97;1762395;81;21057;-53
2020/12/29 04:11:58;;;;;;;17.25;12.53;;;;;;;2.62;76.25;100080.31;1764632;81;21617;-52
2020/12/29 04:14:27;;;;;;;17.07;12.03;;;;;;;2.58;76.26;100074.02;1762529;80;21372;-55
2020/12/29 04:16:55;;;;;;;15.63;11.10;;;;;;;2.57;76.36;100068.36;1742432;81;20975;-54
2020/12/29 04:19:23;;;;;;;17.85;11.40;;;;;;;2.59;76.35;100055.55;1734149;82;21065;-53
2020/12/29 04:21:51;;;;;;;17.17;11.83;;;;;;;2.58;76.32;100055.22;1742512;81;21596;-54
2020/12/29 04:24:19;;;;;;;16.42;12.03;;;;;;;2.53;76.42;100052.38;1761206;81;20986;-56
2020/12/29 04:26:47;;;;;;;15.88;12.20;;;;;;;2.49;76.57;100059.25;1764480;81;21266;-57
2020/12/29 04:29:14;;;;;;;17.10;12.07;;;;;;;2.46;76.69;100049.45;1764428;80;20955;-54
2020/12/29 04:31:43;;;;;;;14.47;10.72;;;;;;;2.44;76.84;100055.06;1764475;81;20947;-54
2020/12/29 04:34:11;;;;;;;15.08;10.98;;;;;;;2.47;76.89;100062.66;1764464;80;21548;-52
2020/12/29 04:36:39;;;;;;;15.70;11.30;;;;;;;2.47;76.90;100069.38;1764428;80;21002;-54
2020/12/29 04:39:06;;;;;;;16.05;11.57;;;;;;;2.49;76.95;100045.82;1764526;81;22052;-51
2020/12/29 04:41:35;;;;;;;18.27;12.18;;;;;;;2.46;77.07;100036.03;1764434;80;20911;-55
2020/12/29 04:44:03;;;;;;;17.82;11.70;;;;;;;2.37;77.29;100031.45;1737549;81;21152;-53
2020/12/29 04:46:32;;;;;;;17.82;11.83;;;;;;;2.33;77.48;100035.61;1734202;82;21505;-55
2020/12/29 04:49:00;;;;;;;15.95;10.30;;;;;;;2.35;77.58;100034.88;1734156;82;21003;-54
2020/12/29 04:51:28;;;;;;;16.80;10.90;;;;;;;2.37;77.64;100026.60;1734072;81;21161;-51
2020/12/29 04:53:58;;;;;;;16.20;11.05;;;;;;;2.40;77.66;100038.26;1734110;82;20963;-51
2020/12/29 04:58:23;;;;;;;17.63;11.73;;;;;;;2.47;77.61;100026.93;1878505;76;22550;-57
2020/12/29 05:00:51;;;;;;;18.70;12.80;;;;;;;2.44;77.64;100017.98;1848633;77;21012;-53
2020/12/29 05:03:19;;;;;;;19.25;12.13;;;;;;;2.39;77.68;100036.09;1848669;76;21598;-53
2020/12/29 05:05:47;;;;;;;15.28;10.18;;;;;;;2.37;77.78;100031.45;1779535;80;21027;-55
2020/12/29 05:08:15;;;;;;;15.90;10.82;;;;;;;2.36;77.82;100023.63;1803162;79;20945;-54
2020/12/29 05:10:47;;;;;;;21.97;12.88;;;;;;;2.33;77.94;100032.92;1803115;79;20937;-55
2020/12/29 05:13:16;;;;;;;18.67;12.00;;;;;;;2.27;78.07;100037.30;1779700;80;20989;-52
2020/12/29 05:15:44;;;;;;;21.15;12.73;;;;;;;2.30;78.22;100038.75;1747228;79;21207;-56
2020/12/29 05:18:12;;;;;;;20.88;13.00;;;;;;;2.35;78.18;100042.94;1734934;80;21914;-53
2020/12/29 05:20:40;;;;;;;19.57;11.85;;;;;;;2.34;78.11;100043.47;1797412;79;21079;-53
2020/12/29 05:23:07;;;;;;;16.60;10.03;;;;;;;2.37;78.09;100043.53;1802373;79;21031;-52
2020/12/29 05:25:35;;;;;;;18.25;12.53;;;;;;;2.34;78.16;100040.78;1745855;79;21536;-55
2020/12/29 05:28:06;;;;;;;19.62;12.33;;;;;;;2.34;78.27;100042.64;1796471;79;21436;-58
2020/12/29 05:30:34;;;;;;;15.72;10.20;;;;;;;2.35;78.28;100033.55;1778197;80;21606;-52
2020/12/29 05:33:01;;;;;;;17.42;11.50;;;;;;;2.35;78.35;100038.91;1801757;79;21582;-52
2020/12/29 05:35:29;;;;;;;17.37;9.50;;;;;;;2.36;78.38;100047.78;1810414;79;21828;-50
2020/12/29 05:37:56;;;;;;;16.27;9.85;;;;;;;2.37;78.45;100048.90;1778748;80;21137;-51
2020/12/29 05:40:28;;;;;;;18.27;11.68;;;;;;;2.38;78.53;100066.65;1724625;80;21442;-54
2020/12/29 05:42:58;;;;;;;16.82;9.80;;;;;;;2.39;78.57;100060.27;1802751;79;21012;-51
2020/12/29 05:45:34;;;;;;;15.30;10.10;;;;;;;2.43;78.55;100056.08;1779380;80;21183;-51
2020/12/29 05:48:03;;;;;;;13.53;8.68;;;;;;;2.40;78.56;100036.92;1802862;79;21000;-53
2020/12/29 05:50:32;;;;;;;12.73;8.88;;;;;;;2.39;78.62;100033.41;1778774;80;21204;-55
2020/12/29 05:53:04;;;;;;;12.20;8.63;;;;;;;2.37;78.66;100034.13;1775369;79;23546;-57
2020/12/29 05:55:33;;;;;;;15.03;10.25;;;;;;;2.35;78.80;100022.80;1770630;81;21000;-53
2020/12/29 05:58:09;;;;;;;12.88;9.18;;;;;;;2.27;79.02;100027.91;1762485;81;21097;-54
2020/12/29 06:00:39;;;;;;;13.90;8.95;;;;;;;2.23;79.18;100020.51;1759487;81;21273;-52
2020/12/29 06:03:08;;;;;;;12.35;8.40;;;;;;;2.23;79.31;100007.09;1759835;81;21009;-53
2020/12/29 06:05:37;;;;;;;13.15;7.55;;;;;;;2.25;79.32;100005.02;1759869;81;21459;-52
2020/12/29 06:08:07;;;;;;;12.05;7.45;;;;;;;2.32;79.78;100007.94;1759665;81;20985;-52
2020/12/29 06:10:36;;;;;;;14.38;8.83;;;;;;;2.43;79.90;100015.80;1758587;81;21205;-53
2020/12/29 06:13:05;;;;;;;12.25;7.62;;;;;;;2.55;80.18;100021.29;1758402;81;21195;-49
2020/12/29 06:15:36;;;;;;;14.20;9.98;;;;;;;2.66;79.75;100007.66;1759069;81;20945;-53
2020/12/29 06:18:07;;;;;;;11.15;7.65;;;;;;;2.74;79.49;100015.44;1759964;81;21382;-49
2020/12/29 06:20:49;;;;;;;11.63;6.97;;;;;;;2.82;79.24;100026.70;1760004;81;21064;-55
2020/12/29 06:23:20;;;;;;;14.58;8.28;;;;;;;2.89;78.83;100015.91;1759761;81;20920;-53
2020/12/29 06:25:48;;;;;;;13.25;8.30;;;;;;;2.96;78.78;100022.55;1759930;81;21000;-53
2020/12/29 06:30:56;;;;;;;12.60;7.67;;;;;;;3.08;78.26;100027.46;1873641;75;23187;-55
2020/12/29 06:33:24;;;;;;;9.90;6.62;;;;;;;3.04;78.00;100031.14;1841564;77;21043;-54
2020/12/29 06:35:51;;;;;;;8.95;6.10;;;;;;;3.07;77.93;100019.11;1811593;78;21465;-52
2020/12/29 06:38:25;;;;;;;11.15;7.45;;;;;;;3.09;77.92;100011.62;1783988;78;21006;-56
2020/12/29 06:40:52;;;;;;;11.65;7.25;;;;;;;3.12;77.79;100006.64;1811747;78;20899;-52
2020/12/29 06:43:22;;;;;;;10.13;5.90;;;;;;;3.11;77.59;99991.56;1810808;78;21489;-53
2020/12/29 06:45:52;;;;;;;12.30;6.97;;;;;;;3.07;77.33;99997.08;1840346;77;21030;-54
2020/12/29 06:48:21;;;;;;;9.30;6.17;;;;;;;2.99;77.37;100001.42;1840802;78;21251;-52
2020/12/29 06:50:48;;;;;;;11.28;6.35;;;;;;;2.95;77.49;100006.95;1840381;77;21062;-51
2020/12/29 06:53:18;;;;;;;8.78;6.08;;;;;;;2.91;77.63;100004.40;1809771;78;21030;-53
2020/12/29 06:55:49;;;;;;;9.38;6.10;;;;;;;2.88;77.83;100007.52;1808154;79;20923;-53
2020/12/29 06:58:32;;;;;;;11.05;7.03;;;;;;;2.86;78.02;100025.22;1808535;78;21208;-51
2020/12/29 07:01:24;;;;;;;11.97;7.83;;;;;;;2.82;78.15;100015.13;1808707;78;22094;-53
2020/12/29 07:04:06;;;;;;;9.65;6.20;;;;;;;2.76;78.37;100000.73;1781259;79;21049;-51
2020/12/29 07:06:35;;;;;;;9.38;6.00;;;;;;;2.73;78.51;100013.25;1808620;79;21474;-54
2020/12/29 07:09:21;;;;;;;10.08;6.17;;;;;;;2.71;78.67;100009.97;1808514;78;21062;-52
2020/12/29 07:12:09;;;;;;;;;;;;;;;2.70;78.72;100006.17;1811014;79;21551;-56
2020/12/29 07:14:37;;;;;;;12.10;7.37;;;;;;;2.67;78.87;99995.86;1808529;78;21368;-57
2020/12/29 07:17:06;;;;;;;9.38;6.03;;;;;;;2.65;78.98;99988.56;1808303;79;20954;-54
2020/12/29 07:19:39;;;;;;;8.28;5.67;;;;;;;2.65;79.09;99996.62;1808053;79;21127;-52
2020/12/29 07:22:17;;;;;;;8.20;5.58;;;;;;;2.63;79.22;100001.38;1807797;79;21089;-53
2020/12/29 07:24:46;;;;;;;7.08;5.00;;;;;;;2.61;79.31;99998.91;1743095;79;20940;-51
2020/12/29 07:27:21;;;;;;;9.78;6.03;;;;;;;2.64;79.41;100007.89;1808316;79;21194;-54
2020/12/29 07:29:59;;;;;;;8.73;6.22;;;;;;;2.68;79.44;100032.42;1808099;79;21137;-53
2020/12/29 07:32:28;;;;;;;6.17;4.22;;;;;;;2.69;79.45;100004.54;1794165;79;21112;-55
2020/12/29 07:34:56;;;;;;;9.83;4.28;;;;;;;2.71;79.36;100001.09;1783024;79;20920;-53
2020/12/29 07:37:24;;;;;;;8.28;4.80;;;;;;;2.69;79.33;99998.64;1728520;80;21107;-53
2020/12/29 07:39:51;;;;;;;7.47;5.50;;;;;;;2.73;79.35;100002.50;1782956;79;22050;-51
2020/12/29 07:42:19;;;;;;;7.65;5.15;;;;;;;2.70;79.29;99995.43;1782021;80;21021;-53
2020/12/29 07:44:49;;;;;;;9.15;5.70;;;;;;;2.66;79.40;99999.59;1782469;79;21622;-53
2020/12/29 07:47:17;;;;;;;7.03;4.85;;;;;;;2.63;79.54;99973.98;1782429;79;21048;-56
2020/12/29 07:49:45;;;;;;;7.28;4.90;;;;;;;2.63;79.61;100003.53;1782213;79;21080;-54
2020/12/29 07:52:23;;;;;;;7.87;4.72;;;;;;;2.63;79.68;99997.34;1782322;80;21368;-57
2020/12/29 07:55:12;;;;;;;10.13;7.33;;;;;;;2.64;79.77;100002.52;1782348;80;21203;-55
2020/12/29 07:57:40;;;;;;;9.48;6.87;;;;;;;2.67;79.73;100006.08;1782390;79;21135;-55
2020/12/29 08:00:13;;;;;;;7.90;4.83;;;;;;;2.67;79.68;100011.98;1782384;79;21066;-53
2020/12/29 08:02:43;;;;;;;10.30;5.75;;;;;;;2.66;79.61;100012.50;1782602;79;21146;-55
2020/12/29 08:05:11;;;;;;;7.97;5.15;;;;;;;2.67;79.63;100010.63;1752694;79;21198;-57
2020/12/29 08:07:39;;;;;;;9.43;5.60;;;;;;;2.70;79.65;100000.80;1782353;79;21020;-55
2020/12/29 08:10:08;;;;;;;9.18;5.08;;;;;;;2.75;79.59;99979.47;1782405;80;21020;-55
2020/12/29 08:12:36;;;;;;;9.63;6.60;;;;;;;2.76;79.51;99971.17;1782193;79;21965;-52
2020/12/29 08:15:05;;;;;;;9.43;6.03;;;;;;;2.78;79.50;99976.31;1782415;79;20938;-53
2020/12/29 08:17:33;;;;;;;10.50;5.62;;;;;;;2.79;79.46;99974.77;1782359;80;21352;-51
2020/12/29 08:20:02;;;;;;;7.22;5.30;;;;;;;2.81;79.43;99954.39;1782288;80;21127;-59
2020/12/29 08:22:30;;;;;;;7.90;5.58;;;;;;;2.82;79.38;99952.81;1782307;79;20976;-52
2020/12/29 08:24:58;;;;;;;9.30;6.35;;;;;;;2.83;79.44;99953.63;1782282;80;21064;-51
2020/12/29 08:27:25;;;;;;;9.70;5.45;;;;;;;2.81;79.46;99942.30;1782461;79;21558;-50
2020/12/29 08:29:53;;;;;;;7.62;5.20;;;;;;;2.79;79.53;99953.80;1782179;79;21210;-51
2020/12/29 08:32:21;;;;;;;7.87;4.90;;;;;;;2.78;79.53;99935.49;1782238;80;21939;-51
2020/12/29 08:34:50;;;;;;;8.03;4.42;;;;;;;2.77;79.55;99939.23;1782299;80;21005;-51
2020/12/29 08:37:22;;;;;;;6.70;4.83;;;;;;;2.76;79.57;99932.22;1782297;79;21073;-48
2020/12/29 08:40:08;;;;;;;6.80;5.08;;;;;;;2.74;79.66;99936.19;1782401;79;21028;-52
2020/12/29 08:42:37;;;;;;;9.45;5.25;;;;;;;2.77;79.69;99941.09;1779300;80;21182;-51
2020/12/29 08:45:08;;;;;;;6.30;4.58;;;;;;;2.76;79.68;99929.53;1752163;80;22395;-50
2020/12/29 08:47:36;;;;;;;7.12;4.67;;;;;;;2.79;79.70;99919.70;1752775;80;21231;-53
2020/12/29 08:50:23;;;;;;;6.30;4.08;;;;;;;2.81;79.76;99913.56;1782299;80;20901;-53
2020/12/29 08:53:09;;;;;;;6.53;4.62;;;;;;;2.87;79.79;99925.27;1782423;79;21024;-53
2020/12/29 08:55:36;;;;;;;6.95;4.37;;;;;;;2.89;79.65;99925.04;1756202;80;22192;-53
2020/12/29 08:58:05;;;;;;;6.40;4.42;;;;;;;2.90;79.69;99902.52;1782345;79;20937;-50
2020/12/29 09:00:33;;;;;;;7.62;4.33;;;;;;;2.91;79.59;99892.06;1752560;80;21516;-59
2020/12/29 09:03:06;;;;;;;7.05;3.67;;;;;;;2.91;79.60;99892.06;1727704;80;21566;-49
2020/12/29 09:05:34;;;;;;;7.58;5.65;;;;;;;2.92;79.61;99896.38;1751347;80;21621;-52
2020/12/29 09:08:01;;;;;;;8.25;5.42;;;;;;;2.93;79.54;99902.05;1782289;80;21423;-55
2020/12/29 09:10:31;;;;;;;6.87;5.30;;;;;;;2.90;79.55;99885.05;1782191;79;21920;-54
2020/12/29 09:12:59;;;;;;;9.30;5.62;;;;;;;2.91;79.62;99886.16;1752403;80;21135;-52
2020/12/29 09:15:27;;;;;;;5.78;3.80;;;;;;;2.93;79.53;99881.90;1727498;80;21492;-57
2020/12/29 09:17:58;;;;;;;8.93;5.90;;;;;;;2.93;79.45;99884.58;1752544;80;20945;-52
2020/12/29 09:20:30;;;;;;;7.00;4.78;;;;;;;2.91;79.54;99878.10;1782413;79;21221;-50
2020/12/29 09:23:16;;;;;;;7.80;5.62;;;;;;;2.89;79.73;99873.48;1782459;80;21614;-51
2020/12/29 09:25:44;;;;;;;7.08;5.28;;;;;;;2.88;79.78;99860.27;1782169;80;21067;-53
2020/12/29 09:28:24;;;;;;;6.78;4.45;;;;;;;2.85;80.02;99861.02;1782377;79;21478;-52
2020/12/29 09:31:05;;;;;;;8.05;4.28;;;;;;;2.90;80.22;99864.91;1792862;79;21227;-57
2020/12/29 09:33:34;;;;;;;6.80;4.55;;;;;;;2.95;80.26;99851.08;1799893;79;21344;-55
2020/12/29 09:36:03;;;;;;;6.70;4.50;;;;;;;2.98;80.44;99837.17;1799810;78;21010;-50
2020/12/29 09:38:31;;;;;;;8.03;4.78;;;;;;;3.08;80.65;99832.06;1773362;79;21523;-53
2020/12/29 09:41:02;;;;;;;7.75;4.97;;;;;;;3.17;80.14;99841.16;1799785;79;21012;-52
2020/12/29 09:43:31;;;;;;;5.45;3.75;;;;;;;3.21;79.84;99841.83;1799882;79;21004;-54
2020/12/29 09:45:59;;;;;;;5.58;3.98;;;;;;;3.22;79.71;99834.58;1799605;78;22332;-56
2020/12/29 09:48:27;;;;;;;4.62;2.65;;;;;;;3.19;79.73;99804.11;1799260;79;20944;-55
2020/12/29 09:50:55;;;;;;;6.17;4.05;;;;;;;3.16;79.88;99798.68;1798181;79;21271;-55
2020/12/29 09:53:23;;;;;;;6.42;4.25;;;;;;;3.11;79.98;99784.58;1799333;78;21059;-53
2020/12/29 09:55:52;;;;;;;5.95;4.03;;;;;;;3.06;80.11;99768.33;1799624;78;21055;-55
2020/12/29 09:58:20;;;;;;;6.95;4.58;;;;;;;3.14;79.99;99779.25;1798816;78;21883;-54
2020/12/29 10:00:50;;;;;;;7.35;4.50;;;;;;;3.11;79.81;99785.11;1799638;78;21024;-55
2020/12/29 10:03:19;;;;;;;7.80;5.83;;;;;;;3.05;79.94;99769.91;1799853;78;21003;-54
2020/12/29 10:05:49;;;;;;;10.60;6.10;;;;;;;3.04;80.11;99770.44;1799798;79;21506;-53
2020/12/29 10:08:16;;;;;;;7.87;4.67;;;;;;;3.03;80.15;99766.09;1800015;78;21550;-53
2020/12/29 10:10:44;;;;;;;7.37;4.47;;;;;;;3.05;80.19;99757.29;1799930;79;20928;-53
2020/12/29 10:13:12;;;;;;;6.08;3.87;;;;;;;3.06;80.30;99754.07;1799819;78;21462;-52
2020/12/29 10:15:40;;;;;;;5.50;4.25;;;;;;;3.06;80.39;99772.36;1799831;78;20988;-51
2020/12/29 10:18:07;;;;;;;7.30;5.37;;;;;;;3.05;80.50;99757.81;1799858;79;21174;-54
2020/12/29 10:20:35;;;;;;;6.55;4.72;;;;;;;3.04;80.59;99732.81;1799827;78;21007;-53
2020/12/29 10:23:03;;;;;;;6.72;4.70;;;;;;;3.03;80.66;99738.39;1799843;79;21392;-52
2020/12/29 10:25:32;;;;;;;4.28;2.72;;;;;;;3.07;80.62;99740.92;1799886;78;21526;-52
2020/12/29 10:27:59;;;;;;;4.78;3.58;;;;;;;3.09;80.58;99737.47;1799843;79;21012;-54
2020/12/29 10:30:27;;;;;;;6.87;4.50;;;;;;;3.13;80.62;99733.27;1794109;78;21044;-55
2020/12/29 10:32:56;;;;;;;5.85;4.33;;;;;;;3.13;80.60;99720.65;1782588;79;21069;-55
2020/12/29 10:35:23;;;;;;;5.28;3.92;;;;;;;3.16;80.65;99711.31;1782593;80;22258;-54
2020/12/29 10:37:52;;;;;;;4.92;3.58;;;;;;;3.19;80.70;99712.18;1752607;80;21607;-52
2020/12/29 10:40:20;;;;;;;4.80;3.30;;;;;;;3.22;80.73;99718.98;1751996;80;21027;-58
2020/12/29 10:42:48;;;;;;;5.05;3.95;;;;;;;3.26;80.56;99708.05;1782496;80;21630;-54
2020/12/29 10:45:16;;;;;;;4.65;3.62;;;;;;;3.27;80.52;99714.53;1782459;80;21103;-53
2020/12/29 10:47:44;;;;;;;5.72;4.10;;;;;;;3.30;80.48;99699.83;1782498;79;21376;-54
2020/12/29 10:50:12;;;;;;;6.47;4.10;;;;;;;3.31;80.53;99702.27;1782371;80;21090;-55
2020/12/29 10:52:39;;;;;;;3.40;2.83;;;;;;;3.33;80.63;99698.81;1782507;80;21091;-56
2020/12/29 10:55:07;;;;;;;3.60;2.40;;;;;;;3.40;80.79;99716.20;1782413;80;21544;-52
2020/12/29 10:57:34;;;;;;;4.03;2.65;;;;;;;3.45;80.79;99702.87;1782597;79;20910;-52
2020/12/29 11:00:03;;;;;;;4.65;3.33;;;;;;;3.53;80.80;99703.02;1782682;79;21190;-54
2020/12/29 11:02:31;;;;;;;4.90;3.75;;;;;;;3.58;80.65;99693.20;1791845;80;21593;-53
2020/12/29 11:04:58;;;;;;;4.08;3.08;;;;;;;3.58;80.68;99705.30;1792061;79;21016;-52
2020/12/29 11:07:26;;;;;;;5.65;2.90;;;;;;;3.63;80.67;99708.10;1791950;80;21075;-51
2020/12/29 11:09:55;;;;;;;5.35;3.20;;;;;;;3.67;80.61;99717.06;1772718;80;21005;-50
2020/12/29 11:12:23;;;;;;;4.22;3.00;;;;;;;3.73;80.49;99710.73;1791812;80;22209;-56
2020/12/29 11:14:51;;;;;;;5.05;3.00;;;;;;;3.76;80.51;99708.40;1791728;79;21140;-55
2020/12/29 11:17:22;;;;;;;3.83;3.12;;;;;;;3.80;80.57;99711.41;1792139;80;21136;-57
2020/12/29 11:19:51;;;;;;;4.47;3.80;;;;;;;3.85;80.49;99704.80;1792004;80;21146;-55
2020/12/29 11:22:19;;;;;;;4.75;3.08;;;;;;;3.86;80.30;99687.09;1792112;78;21013;-56
2020/12/29 11:24:46;;;;;;;6.78;3.27;;;;;;;3.85;80.35;99702.10;1792157;80;21194;-52
2020/12/29 11:27:14;;;;;;;3.72;3.27;;;;;;;3.90;80.39;99702.21;1792065;80;21630;-52
2020/12/29 11:29:42;;;;;;;6.42;3.90;;;;;;;3.97;80.33;99689.99;1792204;80;21420;-50
2020/12/29 11:32:10;;;;;;;5.45;4.20;;;;;;;4.00;80.13;99694.34;1797251;79;21135;-54
2020/12/29 11:34:38;;;;;;;6.03;3.30;;;;;;;3.99;80.04;99699.45;1798113;79;21134;-49
2020/12/29 11:37:06;;;;;;;6.05;3.85;;;;;;;4.05;80.03;99704.41;1798012;78;21265;-52
2020/12/29 11:39:34;;;;;;;4.67;2.92;;;;;;;4.06;79.95;99708.76;1797901;79;20937;-55
2020/12/29 11:42:01;;;;;;;5.17;3.42;;;;;;;4.04;79.97;99710.32;1797976;78;21582;-51
2020/12/29 11:44:30;;;;;;;5.47;3.77;;;;;;;4.05;80.04;99721.38;1798007;79;21519;-54